sensor_id;sensor_type;location;lat;lon;timestamp;pressure;altitude;pressure_sealevel;temperature;humidity
66703;BME280;60933;46.398;-63.798;2023-04-21T00:02:08;101542.81;;;3.01;75.00
66703;BME280;60933;46.398;-63.798;2023-04-21T00:04:34;101541.94;;;2.99;75.31
66703;BME280;60933;46.398;-63.798;2023-04-21T00:07:00;101547.81;;;2.95;75.51
66703;BME280;60933;46.398;-63.798;2023-04-21T00:09:28;101549.41;;;2.90;75.99
66703;BME280;60933;46.398;-63.798;2023-04-21T00:11:54;101549.31;;;2.85;76.24
66703;BME280;60933;46.398;-63.798;2023-04-21T00:14:20;101557.81;;;2.86;76.41
66703;BME280;60933;46.398;-63.798;2023-04-21T00:16:46;101554.34;;;2.82;76.75
66703;BME280;60933;46.398;-63.798;2023-04-21T00:19:20;101556.88;;;2.81;76.95
66703;BME280;60933;46.398;-63.798;2023-04-21T00:21:46;101564.56;;;2.84;77.46
66703;BME280;60933;46.398;-63.798;2023-04-21T00:24:12;101573.09;;;2.84;77.66
66703;BME280;60933;46.398;-63.798;2023-04-21T00:26:38;101579.94;;;2.87;77.67
66703;BME280;60933;46.398;-63.798;2023-04-21T00:29:04;101583.41;;;2.89;77.94
66703;BME280;60933;46.398;-63.798;2023-04-21T00:31:30;101593.63;;;2.91;77.96
66703;BME280;60933;46.398;-63.798;2023-04-21T00:33:56;101574.84;;;2.87;77.99
66703;BME280;60933;46.398;-63.798;2023-04-21T00:36:22;101588.63;;;2.95;77.89
66703;BME280;60933;46.398;-63.798;2023-04-21T00:38:53;101579.09;;;2.87;77.75
66703;BME280;60933;46.398;-63.798;2023-04-21T00:41:19;101597.19;;;2.99;77.67
66703;BME280;60933;46.398;-63.798;2023-04-21T00:44:00;101595.44;;;2.96;77.26
66703;BME280;60933;46.398;-63.798;2023-04-21T00:46:27;101609.16;;;3.01;77.36
66703;BME280;60933;46.398;-63.798;2023-04-21T00:48:53;101607.41;;;3.00;77.11
66703;BME280;60933;46.398;-63.798;2023-04-21T00:51:19;101604.91;;;3.02;77.11
66703;BME280;60933;46.398;-63.798;2023-04-21T00:53:46;101603.31;;;3.07;77.10
66703;BME280;60933;46.398;-63.798;2023-04-21T00:56:13;101603.31;;;3.07;77.25
66703;BME280;60933;46.398;-63.798;2023-04-21T00:58:43;101605.06;;;3.10;77.12
66703;BME280;60933;46.398;-63.798;2023-04-21T01:01:11;101607.69;;;3.13;77.10
66703;BME280;60933;46.398;-63.798;2023-04-21T01:03:38;101598.31;;;3.13;77.06
66703;BME280;60933;46.398;-63.798;2023-04-21T01:06:05;101592.31;;;3.10;77.24
66703;BME280;60933;46.398;-63.798;2023-04-21T01:08:32;101594.88;;;3.11;77.13
66703;BME280;60933;46.398;-63.798;2023-04-21T01:10:58;101593.19;;;3.12;77.25
66703;BME280;60933;46.398;-63.798;2023-04-21T01:13:24;101565.81;;;3.03;77.50
66703;BME280;60933;46.398;-63.798;2023-04-21T01:15:50;101580.38;;;3.09;77.59
66703;BME280;60933;46.398;-63.798;2023-04-21T01:18:16;101582.06;;;3.08;77.51
66703;BME280;60933;46.398;-63.798;2023-04-21T01:20:43;101588.94;;;3.11;77.60
66703;BME280;60933;46.398;-63.798;2023-04-21T01:23:10;101595.72;;;3.10;77.68
66703;BME280;60933;46.398;-63.798;2023-04-21T01:25:36;101594.84;;;3.10;77.88
66703;BME280;60933;46.398;-63.798;2023-04-21T01:28:03;101605.13;;;3.13;77.57
66703;BME280;60933;46.398;-63.798;2023-04-21T01:30:29;101597.38;;;3.08;77.82
66703;BME280;60933;46.398;-63.798;2023-04-21T01:32:55;101606.81;;;3.12;77.68
66703;BME280;60933;46.398;-63.798;2023-04-21T01:35:23;101605.06;;;3.11;77.75
66703;BME280;60933;46.398;-63.798;2023-04-21T01:37:49;101602.50;;;3.10;77.69
66703;BME280;60933;46.398;-63.798;2023-04-21T01:40:15;101601.66;;;3.09;78.04
66703;BME280;60933;46.398;-63.798;2023-04-21T01:42:42;101605.88;;;3.09;77.82
66703;BME280;60933;46.398;-63.798;2023-04-21T01:45:09;101594.84;;;3.08;77.94
66703;BME280;60933;46.398;-63.798;2023-04-21T01:47:35;101604.16;;;3.08;77.95
66703;BME280;60933;46.398;-63.798;2023-04-21T01:50:01;101599.06;;;3.08;77.85
66703;BME280;60933;46.398;-63.798;2023-04-21T01:52:28;101594.75;;;3.05;77.88
66703;BME280;60933;46.398;-63.798;2023-04-21T01:54:54;101598.94;;;3.01;77.83
66703;BME280;60933;46.398;-63.798;2023-04-21T01:57:20;101580.97;;;2.95;77.73
66703;BME280;60933;46.398;-63.798;2023-04-21T01:59:47;101592.13;;;3.00;77.38
66703;BME280;60933;46.398;-63.798;2023-04-21T02:02:14;101590.38;;;2.99;77.44
66703;BME280;60933;46.398;-63.798;2023-04-21T02:04:40;101586.09;;;2.97;77.31
66703;BME280;60933;46.398;-63.798;2023-04-21T02:07:06;101592.00;;;2.94;77.22
66703;BME280;60933;46.398;-63.798;2023-04-21T02:09:32;101584.25;;;2.90;77.10
66703;BME280;60933;46.398;-63.798;2023-04-21T02:11:58;101595.25;;;2.87;77.13
66703;BME280;60933;46.398;-63.798;2023-04-21T02:14:25;101592.63;;;2.84;76.71
66703;BME280;60933;46.398;-63.798;2023-04-21T02:16:51;101588.28;;;2.78;76.82
66703;BME280;60933;46.398;-63.798;2023-04-21T02:19:17;101588.22;;;2.77;76.81
66703;BME280;60933;46.398;-63.798;2023-04-21T02:21:43;101591.56;;;2.73;76.09
66703;BME280;60933;46.398;-63.798;2023-04-21T02:24:10;101590.63;;;2.69;76.48
66703;BME280;60933;46.398;-63.798;2023-04-21T02:26:36;101591.44;;;2.66;76.44
66703;BME280;60933;46.398;-63.798;2023-04-21T02:29:02;101591.34;;;2.63;76.22
66703;BME280;60933;46.398;-63.798;2023-04-21T02:31:28;101585.31;;;2.58;75.62
66703;BME280;60933;46.398;-63.798;2023-04-21T02:33:54;101583.56;;;2.56;75.68
66703;BME280;60933;46.398;-63.798;2023-04-21T02:36:21;101591.13;;;2.52;75.50
66703;BME280;60933;46.398;-63.798;2023-04-21T02:38:47;101584.25;;;2.48;75.44
66703;BME280;60933;46.398;-63.798;2023-04-21T02:41:13;101576.50;;;2.44;75.14
66703;BME280;60933;46.398;-63.798;2023-04-21T02:43:39;101573.81;;;2.37;74.94
66703;BME280;60933;46.398;-63.798;2023-04-21T02:46:06;101581.28;;;2.31;75.13
66703;BME280;60933;46.398;-63.798;2023-04-21T02:48:33;101585.34;;;2.23;74.92
66703;BME280;60933;46.398;-63.798;2023-04-21T02:50:59;101569.91;;;2.15;74.57
66703;BME280;60933;46.398;-63.798;2023-04-21T02:53:26;101591.09;;;2.13;74.84
66703;BME280;60933;46.398;-63.798;2023-04-21T02:55:52;101579.84;;;2.04;75.07
66703;BME280;60933;46.398;-63.798;2023-04-21T02:58:18;101589.94;;;2.01;74.78
66703;BME280;60933;46.398;-63.798;2023-04-21T03:00:44;101585.56;;;1.96;74.72
66703;BME280;60933;46.398;-63.798;2023-04-21T03:03:10;101595.59;;;1.89;75.05
66703;BME280;60933;46.398;-63.798;2023-04-21T03:05:36;101577.59;;;1.82;75.06
66703;BME280;60933;46.398;-63.798;2023-04-21T03:08:02;101582.59;;;1.79;76.26
66703;BME280;60933;46.398;-63.798;2023-04-21T03:10:28;101579.16;;;1.77;77.38
66703;BME280;60933;46.398;-63.798;2023-04-21T03:12:54;101584.19;;;1.73;77.56
66703;BME280;60933;46.398;-63.798;2023-04-21T03:15:21;101585.75;;;1.68;77.29
66703;BME280;60933;46.398;-63.798;2023-04-21T03:17:47;101583.13;;;1.65;77.20
66703;BME280;60933;46.398;-63.798;2023-04-21T03:20:14;101581.41;;;1.64;76.79
66703;BME280;60933;46.398;-63.798;2023-04-21T03:22:40;101586.47;;;1.63;75.74
66703;BME280;60933;46.398;-63.798;2023-04-21T03:25:07;101580.50;;;1.62;75.46
66703;BME280;60933;46.398;-63.798;2023-04-21T03:27:33;101575.19;;;1.53;74.50
66703;BME280;60933;46.398;-63.798;2023-04-21T03:29:59;101586.47;;;1.63;73.93
66703;BME280;60933;46.398;-63.798;2023-04-21T03:32:26;101585.69;;;1.65;73.67
66703;BME280;60933;46.398;-63.798;2023-04-21T03:34:52;101570.38;;;1.64;73.77
66703;BME280;60933;46.398;-63.798;2023-04-21T03:37:18;101580.50;;;1.62;73.29
66703;BME280;60933;46.398;-63.798;2023-04-21T03:39:44;101581.44;;;1.66;73.23
66703;BME280;60933;46.398;-63.798;2023-04-21T03:42:10;101584.03;;;1.67;72.34
66703;BME280;60933;46.398;-63.798;2023-04-21T03:44:36;101589.97;;;1.68;72.33
66703;BME280;60933;46.398;-63.798;2023-04-21T03:47:02;101577.25;;;1.68;71.94
66703;BME280;60933;46.398;-63.798;2023-04-21T03:49:29;101573.91;;;1.70;71.03
66703;BME280;60933;46.398;-63.798;2023-04-21T03:51:55;101576.56;;;1.73;70.61
66703;BME280;60933;46.398;-63.798;2023-04-21T03:54:21;101583.41;;;1.76;70.62
66703;BME280;60933;46.398;-63.798;2023-04-21T03:56:47;101569.75;;;1.74;70.39
66703;BME280;60933;46.398;-63.798;2023-04-21T03:59:13;101569.06;;;1.80;70.01
66703;BME280;60933;46.398;-63.798;2023-04-21T04:01:39;101571.50;;;1.77;69.96
66703;BME280;60933;46.398;-63.798;2023-04-21T04:04:07;101574.97;;;1.79;69.73
66703;BME280;60933;46.398;-63.798;2023-04-21T04:06:33;101570.69;;;1.78;70.11
66703;BME280;60933;46.398;-63.798;2023-04-21T04:09:00;101564.78;;;1.79;69.40
66703;BME280;60933;46.398;-63.798;2023-04-21T04:11:30;101563.16;;;1.81;69.37
66703;BME280;60933;46.398;-63.798;2023-04-21T04:13:56;101563.16;;;1.81;68.89
66703;BME280;60933;46.398;-63.798;2023-04-21T04:16:22;101563.13;;;1.79;69.33
66703;BME280;60933;46.398;-63.798;2023-04-21T04:18:51;101563.94;;;1.78;69.25
66703;BME280;60933;46.398;-63.798;2023-04-21T04:21:17;101566.41;;;1.75;68.96
66703;BME280;60933;46.398;-63.798;2023-04-21T04:23:43;101563.88;;;1.77;68.90
66703;BME280;60933;46.398;-63.798;2023-04-21T04:26:09;101574.03;;;1.75;69.07
66703;BME280;60933;46.398;-63.798;2023-04-21T04:28:36;101572.28;;;1.72;69.12
66703;BME280;60933;46.398;-63.798;2023-04-21T04:31:03;101570.56;;;1.71;69.06
66703;BME280;60933;46.398;-63.798;2023-04-21T04:33:29;101562.84;;;1.68;69.31
66703;BME280;60933;46.398;-63.798;2023-04-21T04:35:55;101563.69;;;1.67;69.03
66703;BME280;60933;46.398;-63.798;2023-04-21T04:38:22;101557.69;;;1.65;69.25
66703;BME280;60933;46.398;-63.798;2023-04-21T04:40:57;101547.34;;;1.59;69.10
66703;BME280;60933;46.398;-63.798;2023-04-21T04:43:27;101556.66;;;1.58;68.92
66703;BME280;60933;46.398;-63.798;2023-04-21T04:45:53;101563.44;;;1.58;68.89
66703;BME280;60933;46.398;-63.798;2023-04-21T04:48:19;101564.22;;;1.55;68.96
66703;BME280;60933;46.398;-63.798;2023-04-21T04:50:45;101569.22;;;1.52;68.94
66703;BME280;60933;46.398;-63.798;2023-04-21T04:53:11;101575.94;;;1.50;68.91
66703;BME280;60933;46.398;-63.798;2023-04-21T04:55:37;101572.53;;;1.48;69.25
66703;BME280;60933;46.398;-63.798;2023-04-21T04:58:03;101569.06;;;1.46;68.81
66703;BME280;60933;46.398;-63.798;2023-04-21T05:00:30;101566.38;;;1.40;68.91
66703;BME280;60933;46.398;-63.798;2023-04-21T05:02:56;101568.94;;;1.41;68.86
66703;BME280;60933;46.398;-63.798;2023-04-21T05:05:22;101572.31;;;1.40;68.99
66703;BME280;60933;46.398;-63.798;2023-04-21T05:07:49;101574.00;;;1.40;68.67
66703;BME280;60933;46.398;-63.798;2023-04-21T05:10:16;101579.88;;;1.37;69.14
66703;BME280;60933;46.398;-63.798;2023-04-21T05:12:42;101576.34;;;1.32;68.65
66703;BME280;60933;46.398;-63.798;2023-04-21T05:15:08;101601.88;;;1.35;68.73
66703;BME280;60933;46.398;-63.798;2023-04-21T05:17:35;101596.69;;;1.32;69.13
66703;BME280;60933;46.398;-63.798;2023-04-21T05:20:04;101605.91;;;1.29;69.36
66703;BME280;60933;46.398;-63.798;2023-04-21T05:22:30;101603.34;;;1.27;69.46
66703;BME280;60933;46.398;-63.798;2023-04-21T05:24:56;101610.06;;;1.25;69.70
66703;BME280;60933;46.398;-63.798;2023-04-21T05:27:22;101623.59;;;1.24;69.83
66703;BME280;60933;46.398;-63.798;2023-04-21T05:29:48;101615.94;;;1.22;69.33
66703;BME280;60933;46.398;-63.798;2023-04-21T05:32:14;101621.81;;;1.21;69.82
66703;BME280;60933;46.398;-63.798;2023-04-21T05:34:40;101619.22;;;1.18;69.71
66703;BME280;60933;46.398;-63.798;2023-04-21T05:37:06;101614.88;;;1.16;69.37
66703;BME280;60933;46.398;-63.798;2023-04-21T05:39:34;101612.16;;;1.09;69.51
66703;BME280;60933;46.398;-63.798;2023-04-21T05:42:01;101622.41;;;1.11;70.07
66703;BME280;60933;46.398;-63.798;2023-04-21T05:44:27;101617.25;;;1.09;70.08
66703;BME280;60933;46.398;-63.798;2023-04-21T05:46:53;101609.47;;;1.03;70.10
66703;BME280;60933;46.398;-63.798;2023-04-21T05:49:19;101594.69;;;0.90;70.75
66703;BME280;60933;46.398;-63.798;2023-04-21T05:51:45;101617.84;;;0.99;70.67
66703;BME280;60933;46.398;-63.798;2023-04-21T05:54:11;101615.19;;;0.96;70.83
66703;BME280;60933;46.398;-63.798;2023-04-21T05:56:37;101606.72;;;0.96;70.77
66703;BME280;60933;46.398;-63.798;2023-04-21T05:59:03;101604.25;;;0.99;71.32
66703;BME280;60933;46.398;-63.798;2023-04-21T06:01:31;101612.75;;;0.99;70.97
66703;BME280;60933;46.398;-63.798;2023-04-21T06:03:57;101605.06;;;0.98;71.50
66703;BME280;60933;46.398;-63.798;2023-04-21T06:06:25;101606.78;;;0.99;71.09
66703;BME280;60933;46.398;-63.798;2023-04-21T06:08:52;101604.16;;;0.96;71.75
66703;BME280;60933;46.398;-63.798;2023-04-21T06:11:18;101609.19;;;0.94;71.50
66703;BME280;60933;46.398;-63.798;2023-04-21T06:13:44;101601.56;;;0.94;71.93
66703;BME280;60933;46.398;-63.798;2023-04-21T06:16:10;101598.94;;;0.91;71.74
66703;BME280;60933;46.398;-63.798;2023-04-21T06:18:39;101600.72;;;0.93;72.03
66703;BME280;60933;46.398;-63.798;2023-04-21T06:21:05;101590.50;;;0.92;71.93
66703;BME280;60933;46.398;-63.798;2023-04-21T06:23:31;101588.78;;;0.91;72.09
66703;BME280;60933;46.398;-63.798;2023-04-21T06:26:04;101586.91;;;0.85;72.25
66703;BME280;60933;46.398;-63.798;2023-04-21T06:28:32;101590.44;;;0.90;72.16
66703;BME280;60933;46.398;-63.798;2023-04-21T06:30:59;101587.91;;;0.90;72.61
66703;BME280;60933;46.398;-63.798;2023-04-21T06:33:26;101583.69;;;0.91;71.97
66703;BME280;60933;46.398;-63.798;2023-04-21T06:35:53;101584.50;;;0.90;72.77
66703;BME280;60933;46.398;-63.798;2023-04-21T06:38:20;101586.09;;;0.86;72.61
66703;BME280;60933;46.398;-63.798;2023-04-21T06:40:46;101583.50;;;0.85;72.08
66703;BME280;60933;46.398;-63.798;2023-04-21T06:43:12;101587.78;;;0.86;72.82
66703;BME280;60933;46.398;-63.798;2023-04-21T06:45:39;101588.56;;;0.85;72.96
66703;BME280;60933;46.398;-63.798;2023-04-21T06:48:05;101591.88;;;0.81;72.35
66703;BME280;60933;46.398;-63.798;2023-04-21T06:50:31;101588.50;;;0.82;72.70
66703;BME280;60933;46.398;-63.798;2023-04-21T06:52:57;101593.63;;;0.83;72.66
66703;BME280;60933;46.398;-63.798;2023-04-21T06:55:23;101596.94;;;0.81;72.71
66703;BME280;60933;46.398;-63.798;2023-04-21T06:57:50;101598.66;;;0.80;72.64
66703;BME280;60933;46.398;-63.798;2023-04-21T07:00:16;101598.53;;;0.77;72.94
66703;BME280;60933;46.398;-63.798;2023-04-21T07:02:42;101611.25;;;0.77;73.02
66703;BME280;60933;46.398;-63.798;2023-04-21T07:05:08;101612.09;;;0.77;73.62
66703;BME280;60933;46.398;-63.798;2023-04-21T07:07:35;101600.97;;;0.74;73.07
66703;BME280;60933;46.398;-63.798;2023-04-21T07:10:01;101618.84;;;0.75;73.38
66703;BME280;60933;46.398;-63.798;2023-04-21T07:12:27;101625.66;;;0.76;73.30
66703;BME280;60933;46.398;-63.798;2023-04-21T07:14:53;101629.06;;;0.78;73.27
66703;BME280;60933;46.398;-63.798;2023-04-21T07:17:19;101626.50;;;0.77;73.46
66703;BME280;60933;46.398;-63.798;2023-04-21T07:19:45;101637.50;;;0.77;73.69
66703;BME280;60933;46.398;-63.798;2023-04-21T07:22:11;101637.44;;;0.74;73.90
66703;BME280;60933;46.398;-63.798;2023-04-21T07:24:37;101640.03;;;0.76;73.53
66703;BME280;60933;46.398;-63.798;2023-04-21T07:27:04;101641.72;;;0.75;73.73
66703;BME280;60933;46.398;-63.798;2023-04-21T07:29:30;101646.84;;;0.77;73.74
66703;BME280;60933;46.398;-63.798;2023-04-21T07:31:59;101649.38;;;0.77;74.00
66703;BME280;60933;46.398;-63.798;2023-04-21T07:34:25;101656.16;;;0.76;74.10
66703;BME280;60933;46.398;-63.798;2023-04-21T07:36:51;101662.13;;;0.78;73.84
66703;BME280;60933;46.398;-63.798;2023-04-21T07:39:18;101662.94;;;0.77;74.45
66703;BME280;60933;46.398;-63.798;2023-04-21T07:41:44;101658.72;;;0.78;74.25
66703;BME280;60933;46.398;-63.798;2023-04-21T07:44:10;101661.31;;;0.79;74.42
66703;BME280;60933;46.398;-63.798;2023-04-21T07:46:36;101657.13;;;0.82;74.21
66703;BME280;60933;46.398;-63.798;2023-04-21T07:49:02;101657.09;;;0.80;74.06
66703;BME280;60933;46.398;-63.798;2023-04-21T07:51:28;101667.44;;;0.86;74.35
66703;BME280;60933;46.398;-63.798;2023-04-21T07:53:54;101665.78;;;0.88;74.02
66703;BME280;60933;46.398;-63.798;2023-04-21T07:56:21;101668.41;;;0.90;73.48
66703;BME280;60933;46.398;-63.798;2023-04-21T07:58:47;101664.25;;;0.92;73.97
66703;BME280;60933;46.398;-63.798;2023-04-21T08:01:13;101655.59;;;0.87;73.73
66703;BME280;60933;46.398;-63.798;2023-04-21T08:03:39;101666.88;;;0.97;73.45
66703;BME280;60933;46.398;-63.798;2023-04-21T08:06:05;101669.53;;;1.00;73.77
66703;BME280;60933;46.398;-63.798;2023-04-21T08:08:32;101675.53;;;1.02;73.46
66703;BME280;60933;46.398;-63.798;2023-04-21T08:10:58;101677.25;;;1.03;73.43
66703;BME280;60933;46.398;-63.798;2023-04-21T08:13:24;101674.72;;;1.03;73.52
66703;BME280;60933;46.398;-63.798;2023-04-21T08:15:51;101678.22;;;1.06;73.86
66703;BME280;60933;46.398;-63.798;2023-04-21T08:18:17;101677.38;;;1.07;73.55
66703;BME280;60933;46.398;-63.798;2023-04-21T08:20:46;101670.66;;;1.09;73.60
66703;BME280;60933;46.398;-63.798;2023-04-21T08:23:14;101674.16;;;1.13;73.43
66703;BME280;60933;46.398;-63.798;2023-04-21T08:25:40;101673.38;;;1.16;73.08
66703;BME280;60933;46.398;-63.798;2023-04-21T08:28:06;101680.19;;;1.17;73.13
66703;BME280;60933;46.398;-63.798;2023-04-21T08:30:32;101683.66;;;1.19;73.15
66703;BME280;60933;46.398;-63.798;2023-04-21T08:32:59;101679.47;;;1.21;73.14
66703;BME280;60933;46.398;-63.798;2023-04-21T08:35:25;101681.22;;;1.22;73.07
66703;BME280;60933;46.398;-63.798;2023-04-21T08:37:51;101689.72;;;1.24;72.90
66703;BME280;60933;46.398;-63.798;2023-04-21T08:40:18;101687.97;;;1.21;72.89
66703;BME280;60933;46.398;-63.798;2023-04-21T08:42:47;101694.91;;;1.27;73.37
66703;BME280;60933;46.398;-63.798;2023-04-21T08:45:13;101703.47;;;1.29;73.31
66703;BME280;60933;46.398;-63.798;2023-04-21T08:47:40;101700.94;;;1.31;72.78
66703;BME280;60933;46.398;-63.798;2023-04-21T08:50:11;101703.53;;;1.32;73.06
66703;BME280;60933;46.398;-63.798;2023-04-21T08:52:37;101706.97;;;1.34;72.79
66703;BME280;60933;46.398;-63.798;2023-04-21T08:55:05;101715.53;;;1.36;73.49
66703;BME280;60933;46.398;-63.798;2023-04-21T08:57:32;101715.53;;;1.36;73.33
66703;BME280;60933;46.398;-63.798;2023-04-21T08:59:58;101711.13;;;1.31;73.07
66703;BME280;60933;46.398;-63.798;2023-04-21T09:02:24;101720.63;;;1.36;73.42
66703;BME280;60933;46.398;-63.798;2023-04-21T09:04:51;101729.25;;;1.41;72.96
66703;BME280;60933;46.398;-63.798;2023-04-21T09:07:37;101727.50;;;1.40;73.26
66703;BME280;60933;46.398;-63.798;2023-04-21T09:10:06;101736.97;;;1.45;73.17
66703;BME280;60933;46.398;-63.798;2023-04-21T09:12:33;101749.69;;;1.45;73.46
66703;BME280;60933;46.398;-63.798;2023-04-21T09:15:03;101761.56;;;1.46;73.75
66703;BME280;60933;46.398;-63.798;2023-04-21T09:17:31;101759.13;;;1.49;73.63
66703;BME280;60933;46.398;-63.798;2023-04-21T09:20:20;101771.97;;;1.52;73.79
66703;BME280;60933;46.398;-63.798;2023-04-21T09:22:50;101764.34;;;1.53;73.53
66703;BME280;60933;46.398;-63.798;2023-04-21T09:25:19;101768.59;;;1.53;74.01
66703;BME280;60933;46.398;-63.798;2023-04-21T09:27:46;101770.28;;;1.54;73.73
66703;BME280;60933;46.398;-63.798;2023-04-21T09:30:13;101776.34;;;1.57;73.78
66703;BME280;60933;46.398;-63.798;2023-04-21T09:32:43;101761.84;;;1.55;73.69
66703;BME280;60933;46.398;-63.798;2023-04-21T09:35:10;101784.25;;;1.67;73.59
66703;BME280;60933;46.398;-63.798;2023-04-21T09:37:37;101789.44;;;1.70;73.77
66703;BME280;60933;46.398;-63.798;2023-04-21T09:40:04;101803.13;;;1.73;73.73
66703;BME280;60933;46.398;-63.798;2023-04-21T09:42:32;101802.31;;;1.74;73.72
66703;BME280;60933;46.398;-63.798;2023-04-21T09:44:59;101815.09;;;1.78;73.51
66703;BME280;60933;46.398;-63.798;2023-04-21T09:47:28;101798.97;;;1.77;73.71
66703;BME280;60933;46.398;-63.798;2023-04-21T09:49:57;101793.19;;;1.83;73.98
66703;BME280;60933;46.398;-63.798;2023-04-21T09:52:24;101793.34;;;1.87;73.88
66703;BME280;60933;46.398;-63.798;2023-04-21T09:54:57;101791.72;;;1.91;73.98
66703;BME280;60933;46.398;-63.798;2023-04-21T09:57:30;101791.91;;;1.97;74.45
66703;BME280;60933;46.398;-63.798;2023-04-21T10:00:02;101785.22;;;2.02;74.63
66703;BME280;60933;46.398;-63.798;2023-04-21T10:02:43;101781.25;;;2.12;75.84
66703;BME280;60933;46.398;-63.798;2023-04-21T10:05:10;101791.59;;;2.18;76.43
66703;BME280;60933;46.398;-63.798;2023-04-21T10:07:37;101774.81;;;2.27;77.80
66703;BME280;60933;46.398;-63.798;2023-04-21T10:12:49;101771.78;;;2.40;78.33
66703;BME280;60933;46.398;-63.798;2023-04-21T10:18:21;101762.69;;;2.50;78.97
66703;BME280;60933;46.398;-63.798;2023-04-21T10:21:02;101778.03;;;2.53;78.78
66703;BME280;60933;46.398;-63.798;2023-04-21T10:23:36;101782.28;;;2.52;78.22
66703;BME280;60933;46.398;-63.798;2023-04-21T10:26:16;101790.06;;;2.57;77.60
66703;BME280;60933;46.398;-63.798;2023-04-21T10:31:51;101811.50;;;2.65;77.87
66703;BME280;60933;46.398;-63.798;2023-04-21T10:34:28;101814.09;;;2.68;78.53
66703;BME280;60933;46.398;-63.798;2023-04-21T10:39:41;101821.00;;;2.71;80.53
66703;BME280;60933;46.398;-63.798;2023-04-21T10:47:35;101843.97;;;2.73;82.69
66703;BME280;60933;46.398;-63.798;2023-04-21T10:50:29;101859.44;;;2.80;83.08
66703;BME280;60933;46.398;-63.798;2023-04-21T10:53:09;101855.28;;;2.84;83.35
66703;BME280;60933;46.398;-63.798;2023-04-21T10:55:37;101858.75;;;2.86;83.45
66703;BME280;60933;46.398;-63.798;2023-04-21T10:58:05;101862.22;;;2.88;83.67
66703;BME280;60933;46.398;-63.798;2023-04-21T11:00:34;101862.28;;;2.91;83.37
66703;BME280;60933;46.398;-63.798;2023-04-21T11:03:05;101869.16;;;2.94;83.39
66703;BME280;60933;46.398;-63.798;2023-04-21T11:05:39;101858.91;;;2.92;83.38
66703;BME280;60933;46.398;-63.798;2023-04-21T11:08:13;101858.06;;;2.92;83.27
66703;BME280;60933;46.398;-63.798;2023-04-21T11:10:47;101873.47;;;2.96;83.35
66703;BME280;60933;46.398;-63.798;2023-04-21T11:13:13;101884.50;;;2.95;83.54
66703;BME280;60933;46.398;-63.798;2023-04-21T11:15:40;101874.25;;;2.94;83.53
66703;BME280;60933;46.398;-63.798;2023-04-21T11:18:06;101882.69;;;2.91;83.24
66703;BME280;60933;46.398;-63.798;2023-04-21T11:20:39;101894.47;;;2.86;83.19
66703;BME280;60933;46.398;-63.798;2023-04-21T11:23:06;101883.31;;;2.82;83.09
66703;BME280;60933;46.398;-63.798;2023-04-21T11:25:32;101878.16;;;2.79;82.99
66703;BME280;60933;46.398;-63.798;2023-04-21T11:27:58;101881.59;;;2.81;83.41
66703;BME280;60933;46.398;-63.798;2023-04-21T11:30:32;101875.53;;;2.78;83.36
66703;BME280;60933;46.398;-63.798;2023-04-21T11:32:59;101878.25;;;2.84;83.69
66703;BME280;60933;46.398;-63.798;2023-04-21T11:35:25;101877.44;;;2.85;83.40
66703;BME280;60933;46.398;-63.798;2023-04-21T11:37:51;101885.06;;;2.85;83.21
66703;BME280;60933;46.398;-63.798;2023-04-21T11:40:18;101880.88;;;2.87;83.04
66703;BME280;60933;46.398;-63.798;2023-04-21T11:42:44;101890.31;;;2.91;82.69
66703;BME280;60933;46.398;-63.798;2023-04-21T11:45:28;101902.22;;;2.91;82.27
66703;BME280;60933;46.398;-63.798;2023-04-21T11:48:14;101892.00;;;2.89;82.04
66703;BME280;60933;46.398;-63.798;2023-04-21T11:50:46;101888.66;;;2.92;81.60
66703;BME280;60933;46.398;-63.798;2023-04-21T11:53:13;101901.59;;;2.99;81.58
66703;BME280;60933;46.398;-63.798;2023-04-21T11:55:44;101896.66;;;3.06;81.56
66703;BME280;60933;46.398;-63.798;2023-04-21T11:58:11;101900.09;;;3.08;80.94
66703;BME280;60933;46.398;-63.798;2023-04-21T12:00:44;101891.84;;;3.18;80.92
66703;BME280;60933;46.398;-63.798;2023-04-21T12:03:12;101893.88;;;3.31;80.80
66703;BME280;60933;46.398;-63.798;2023-04-21T12:05:38;101899.09;;;3.38;80.08
66703;BME280;60933;46.398;-63.798;2023-04-21T12:08:04;101895.03;;;3.46;80.30
66703;BME280;60933;46.398;-63.798;2023-04-21T12:10:31;101903.81;;;3.57;79.86
66703;BME280;60933;46.398;-63.798;2023-04-21T12:12:57;101901.28;;;3.57;79.26
66703;BME280;60933;46.398;-63.798;2023-04-21T12:15:23;101915.03;;;3.64;78.89
66703;BME280;60933;46.398;-63.798;2023-04-21T12:17:51;101903.28;;;3.71;78.61
66703;BME280;60933;46.398;-63.798;2023-04-21T12:20:21;101905.13;;;3.78;78.37
66703;BME280;60933;46.398;-63.798;2023-04-21T12:22:48;101925.66;;;3.81;78.16
66703;BME280;60933;46.398;-63.798;2023-04-21T12:25:14;101922.38;;;3.88;78.34
66703;BME280;60933;46.398;-63.798;2023-04-21T12:27:51;101919.00;;;3.89;77.83
66703;BME280;60933;46.398;-63.798;2023-04-21T12:30:18;101918.41;;;4.01;78.05
66703;BME280;60933;46.398;-63.798;2023-04-21T12:32:44;101927.81;;;4.02;77.55
66703;BME280;60933;46.398;-63.798;2023-04-21T12:35:12;101929.56;;;4.05;77.38
66703;BME280;60933;46.398;-63.798;2023-04-21T12:37:38;101932.38;;;4.17;76.66
66703;BME280;60933;46.398;-63.798;2023-04-21T12:40:04;101937.06;;;4.38;75.92
66703;BME280;60933;46.398;-63.798;2023-04-21T12:42:32;101947.38;;;4.43;73.94
66703;BME280;60933;46.398;-63.798;2023-04-21T12:44:58;101945.78;;;4.48;73.61
66703;BME280;60933;46.398;-63.798;2023-04-21T12:47:25;101957.16;;;4.64;73.13
66703;BME280;60933;46.398;-63.798;2023-04-21T12:49:51;101956.50;;;4.74;72.62
66703;BME280;60933;46.398;-63.798;2023-04-21T12:52:17;101960.97;;;4.85;71.88
66703;BME280;60933;46.398;-63.798;2023-04-21T12:54:43;101957.56;;;4.86;71.40
66703;BME280;60933;46.398;-63.798;2023-04-21T12:57:09;101952.50;;;4.89;71.45
66703;BME280;60933;46.398;-63.798;2023-04-21T12:59:36;101952.78;;;5.04;71.39